Flight Track Log - Related Links

Times and Time Zones

All times are in EDT time to prevent confusion due to time zone crossing. See the JIA9346 flight status page for this flight to view local times or setup timezone preferences in your user account.

Time Position Orientation Groundspeed Altitude Reporting Facility
EDT Latitude Longitude Course Direction KTS MPH feet Rate Location/Type
Thu 07:06:54 PM 30.5650 -86.3133 357° North 293 337 10,000  Level Jacksonville Center
Thu 07:07:55 PM 30.6419 -86.2439 38° Northeast 320 368 11,800 2,000 Climbing Jacksonville Center
Thu 07:08:54 PM 30.7050 -86.1494 52° Northeast 331 381 14,000 2,200 Climbing Jacksonville Center
Thu 07:09:00 PM 30.6488 -86.2224 60° Northeast  Level Estimated
Thu 07:09:55 PM 30.7597 -86.0522 57° Northeast 349 402 16,200  Level Jacksonville Center
Thu 07:10:00 PM 30.7010 -86.1263 60° Northeast  Level Estimated
Thu 07:10:54 PM 30.8164 -85.9550 56° Northeast 354 407 17,700  Level Jacksonville Center
Thu 07:11:00 PM 30.7985 -86.1326 357° North  Level FlightAware Approximate
Thu 07:11:55 PM 30.8750 -85.8550 56° Northeast 364 419 19,300  Level Jacksonville Center
Thu 07:12:54 PM 30.9339 -85.7528 56° Northeast 370 426 20,600 1,261 Climbing Jacksonville Center
Thu 07:13:54 PM 30.9944 -85.6506 55° Northeast 375 432 21,800 1,091 Climbing Jacksonville Center
Thu 07:14:55 PM 31.0575 -85.5408 56° Northeast 380 437 22,800 1,041 Climbing Jacksonville Center
Thu 07:15:55 PM 31.1181 -85.4356 56° Northeast 385 443 23,900 1,050 Climbing Jacksonville Center
Thu 07:16:55 PM 31.1786 -85.3281 57° Northeast 385 443 24,900 1,059 Climbing Jacksonville Center
Thu 07:17:54 PM 31.2392 -85.2178 57° Northeast 385 443 26,000 1,024 Climbing Jacksonville Center
Thu 07:19:45 PM 31.3439 -85.0333 56° Northeast 401 461 27,800 947 Climbing Atlanta Center
Thu 07:20:45 PM 31.4075 -84.9244 56° Northeast 401 461 28,700 600 Climbing Atlanta Center
Thu 07:21:45 PM 31.4728 -84.8106 56° Northeast 401 461 29,000 150 Climbing Atlanta Center
Thu 07:22:45 PM 31.5383 -84.6919 57° Northeast 413 475 29,000  Level Atlanta Center
Thu 07:23:45 PM 31.6078 -84.5706 56° Northeast 435 501 29,000  Level Atlanta Center
Thu 07:24:45 PM 31.6769 -84.4489 56° Northeast 440 506 29,000  Level Atlanta Center
Thu 07:25:45 PM 31.7464 -84.3269 56° Northeast 440 506 29,000  Level Atlanta Center
Thu 07:26:45 PM 31.8153 -84.2003 57° Northeast 440 506 29,000  Level Atlanta Center
Thu 07:27:45 PM 31.8844 -84.0781 56° Northeast 440 506 29,000  Level Atlanta Center
Thu 07:28:45 PM 31.9533 -83.9531 57° Northeast 446 513 29,000  Level Atlanta Center
Thu 07:29:45 PM 32.0239 -83.8258 57° Northeast 452 520 29,000  Level Atlanta Center
Thu 07:30:45 PM 32.0925 -83.7006 57° Northeast 452 520 29,000  Level Atlanta Center
Thu 07:31:45 PM 32.1589 -83.5800 57° Northeast 457 526 29,000  Level Atlanta Center
Thu 07:32:45 PM 32.2272 -83.4544 57° Northeast 452 520 29,000  Level Atlanta Center
Thu 07:33:45 PM 32.2956 -83.3286 57° Northeast 452 520 29,000  Level Atlanta Center
Thu 07:34:45 PM 32.3636 -83.2028 57° Northeast 457 526 29,000  Level Atlanta Center
Thu 07:35:45 PM 32.4378 -83.0667 57° Northeast 452 520 29,000  Level Atlanta Center
Thu 07:36:45 PM 32.5056 -82.9403 58° Northeast 452 520 29,000  Level Atlanta Center
Thu 07:37:45 PM 32.5631 -82.8264 59° Northeast 445 512 29,000  Level Atlanta Center
Thu 07:38:45 PM 32.6306 -82.7019 57° Northeast 445 512 29,000  Level Atlanta Center
Thu 07:40:18 PM 32.7400 -82.5097 56° Northeast 440 506 29,000  Level Jacksonville Center
Thu 07:41:18 PM 32.8064 -82.3833 58° Northeast 440 506 29,000  Level Jacksonville Center
Thu 07:42:18 PM 32.8728 -82.2594 57° Northeast 440 506 29,000  Level Jacksonville Center
Thu 07:43:18 PM 32.9431 -82.1328 57° Northeast 445 512 29,000  Level Jacksonville Center
Thu 07:44:18 PM 33.0111 -82.0058 57° Northeast 445 512 29,000  Level Jacksonville Center
Thu 07:45:18 PM 33.0769 -81.8811 58° Northeast 445 512 29,000  Level Jacksonville Center
Thu 07:46:18 PM 33.1425 -81.7564 58° Northeast 445 512 29,000  Level Jacksonville Center
Thu 07:47:18 PM 33.2125 -81.6339 56° Northeast 445 512 29,000  Level Jacksonville Center
Thu 07:48:18 PM 33.2839 -81.4961 58° Northeast 440 506 29,000  Level Jacksonville Center
Thu 07:49:18 PM 33.3450 -81.3633 61° Northeast 440 506 29,000  Level Jacksonville Center
Thu 07:50:18 PM 33.3958 -81.2506 62° Northeast 434 499 29,000  Level Jacksonville Center
Thu 07:51:18 PM 33.4503 -81.1175 64° Northeast 434 499 29,000  Level Jacksonville Center
Thu 07:52:18 PM 33.5069 -80.9819 63° Northeast 439 505 29,000  Level Jacksonville Center
Thu 07:53:18 PM 33.5589 -80.8489 65° Northeast 439 505 29,000  Level Jacksonville Center
Thu 07:54:18 PM 33.6153 -80.7153 63° Northeast 439 505 29,000  Level Jacksonville Center
Thu 07:55:18 PM 33.6714 -80.5817 63° Northeast 439 505 29,000  Level Jacksonville Center
Thu 07:56:18 PM 33.7272 -80.4453 64° Northeast 439 505 29,000  Level Jacksonville Center
Thu 07:57:18 PM 33.7808 -80.3114 64° Northeast 444 511 29,000 -150 Level Jacksonville Center
Thu 07:58:18 PM 33.8364 -80.1722 64° Northeast 444 511 28,700 -645 Descending Jacksonville Center
Thu 07:59:19 PM 33.8939 -80.0353 63° Northeast 444 511 27,700 -1,000 Descending Jacksonville Center
Thu 08:00:18 PM 33.9528 -79.8858 65° Northeast 444 511 26,700 -1,008 Descending Jacksonville Center
Thu 08:01:18 PM 34.0039 -79.7514 65° Northeast 444 511 25,700 -1,200 Descending Jacksonville Center
Thu 08:02:18 PM 34.0589 -79.6164 64° Northeast 444 511 24,300 -1,600 Descending Jacksonville Center
Thu 08:03:18 PM 34.1097 -79.4842 65° Northeast 444 511 22,500 -1,688 Descending Jacksonville Center
Thu 08:04:58 PM 34.1925 -79.2725 65° Northeast 409 471 19,800 -1,565 Descending Washington Center
Thu 08:05:59 PM 34.2419 -79.1492 64° Northeast 409 471 18,300 -1,587 Descending Washington Center
Thu 08:06:59 PM 34.2939 -79.0156 65° Northeast 429 494 16,600 -1,525 Descending Washington Center
Thu 08:08:01 PM 34.3367 -78.9042 65° Northeast 419 482 15,200 -1,500 Descending Washington Center
Thu 08:08:59 PM 34.3925 -78.7656 64° Northeast 413 475 13,600 -1,576 Descending Washington Center
Thu 08:09:59 PM 34.4353 -78.6514 66° East 395 455 12,100 -1,328 Descending Washington Center
Thu 08:11:01 PM 34.4758 -78.5344 67° East 383 441 10,900 -836 Descending Washington Center
Thu 08:12:01 PM 34.4911 -78.4217 81° East 357 411 10,400 -915 Descending Washington Center
Thu 08:12:59 PM 34.5161 -78.3292 72° East 319 367 9,100 -1,412 Descending Washington Center
Thu 08:14:00 PM 34.5472 -78.2394 67° East 293 337 7,600 -1,525 Descending Washington Center
Thu 08:15:01 PM 34.5806 -78.1497 66° East 282 325 6,000 -1,537 Descending Washington Center
Thu 08:16:01 PM 34.6178 -78.0603 63° Northeast 287 330 4,500 -1,373 Descending Washington Center
Thu 08:16:59 PM 34.6511 -77.9728 65° Northeast 287 330 3,300 -750 Descending Washington Center
Thu 08:18:01 PM 34.6842 -77.8828 66° East 287 330 3,000 -303 Descending Washington Center
Thu 08:18:58 PM 34.7147 -77.8028 65° Northeast 282 325 2,700 -458 Descending Washington Center
Thu 08:19:59 PM 34.7411 -77.7328 65° Northeast 250 288 2,100 -590 Descending Washington Center

Login

Don't have an account? Register now (free) for customized features, flight alerts, and more!